createdAt,value
2017-11-03T00:00:10.520Z,0
2017-11-03T00:00:41.213Z,0
2017-11-03T00:01:11.506Z,0
2017-11-03T00:01:43.072Z,0
2017-11-03T00:02:13.967Z,0
2017-11-03T00:02:45.275Z,0
2017-11-03T00:03:16.105Z,0
2017-11-03T00:03:46.717Z,0
2017-11-03T00:04:17.698Z,0
2017-11-03T00:04:49.486Z,0
2017-11-03T00:05:20.880Z,0
2017-11-03T00:05:51.788Z,0
2017-11-03T00:06:21.925Z,0
2017-11-03T00:06:52.429Z,0
2017-11-03T00:07:23.221Z,0
2017-11-03T00:07:54.816Z,0
2017-11-03T00:08:25.230Z,0
2017-11-03T00:08:56.923Z,0
2017-11-03T00:09:29.050Z,0
2017-11-03T00:09:59.990Z,0
2017-11-03T00:10:31.985Z,0
2017-11-03T00:11:03.886Z,0
2017-11-03T00:11:35.815Z,0
2017-11-03T00:12:06.237Z,0
2017-11-03T00:12:37.852Z,0
2017-11-03T00:13:08.449Z,0
2017-11-03T00:13:39.840Z,0
2017-11-03T00:14:12.977Z,0
2017-11-03T00:14:45.401Z,0
2017-11-03T00:15:44.066Z,0
2017-11-03T00:16:15.086Z,0
2017-11-03T00:16:46.322Z,0
2017-11-03T00:17:17.959Z,0
2017-11-03T00:17:49.700Z,0
2017-11-03T00:18:21.753Z,0
2017-11-03T00:18:55.106Z,0
2017-11-03T00:19:26.311Z,0
2017-11-03T00:19:58.049Z,0
2017-11-03T00:20:29.295Z,0
2017-11-03T00:21:01.042Z,0
2017-11-03T00:21:32.344Z,0
2017-11-03T00:22:05.005Z,0
2017-11-03T00:22:35.658Z,0
2017-11-03T00:23:06.197Z,0
2017-11-03T00:23:36.943Z,0
2017-11-03T00:24:08.175Z,0
2017-11-03T00:24:38.606Z,0
2017-11-03T00:25:11.248Z,0
2017-11-03T00:25:42.452Z,0
2017-11-03T00:26:13.963Z,0
2017-11-03T00:26:46.228Z,0
2017-11-03T00:27:17.225Z,0
2017-11-03T00:27:48.841Z,0
2017-11-03T00:28:20.342Z,0
2017-11-03T00:28:51.723Z,0
2017-11-03T00:29:22.780Z,0
2017-11-03T00:29:53.491Z,0
2017-11-03T00:30:24.355Z,0
2017-11-03T00:30:55.067Z,0
2017-11-03T00:31:26.037Z,0
2017-11-03T00:31:58.323Z,0
2017-11-03T00:32:29.539Z,0
2017-11-03T00:33:01.501Z,0
2017-11-03T00:33:31.962Z,0
2017-11-03T00:34:02.772Z,0
2017-11-03T00:34:33.248Z,0
2017-11-03T00:35:04.693Z,0
2017-11-03T00:35:35.788Z,0
2017-11-03T00:36:08.499Z,0
2017-11-03T00:36:39.450Z,0
2017-11-03T00:37:10.498Z,0
2017-11-03T00:37:42.534Z,0
2017-11-03T00:38:13.599Z,0
2017-11-03T00:38:45.375Z,0
2017-11-03T00:39:16.377Z,0
2017-11-03T00:39:47.606Z,0
2017-11-03T00:40:18.426Z,0
2017-11-03T00:40:56.323Z,0
2017-11-03T00:41:28.555Z,0
2017-11-03T00:41:59.349Z,0
2017-11-03T00:42:31.414Z,0
2017-11-03T00:43:03.230Z,0
2017-11-03T00:43:34.639Z,0
2017-11-03T00:44:05.528Z,0
2017-11-03T00:44:36.040Z,0
2017-11-03T00:45:06.646Z,0
2017-11-03T00:45:37.948Z,0
2017-11-03T00:46:08.829Z,0
2017-11-03T00:46:39.856Z,0
2017-11-03T00:47:11.211Z,0
2017-11-03T00:47:42.722Z,0
2017-11-03T00:48:13.578Z,0
2017-11-03T00:48:44.095Z,0
2017-11-03T00:49:14.985Z,0
2017-11-03T00:49:46.388Z,0
2017-11-03T00:50:17.222Z,0
2017-11-03T00:50:48.519Z,0
2017-11-03T00:51:18.746Z,0
2017-11-03T00:51:49.219Z,0
2017-11-03T00:52:21.207Z,0
2017-11-03T00:52:52.402Z,0
2017-11-03T00:53:23.257Z,0
2017-11-03T00:53:54.162Z,0
2017-11-03T00:54:25.006Z,0
2017-11-03T00:54:55.651Z,0
2017-11-03T00:55:27.038Z,0
2017-11-03T00:55:57.353Z,0
2017-11-03T00:56:27.909Z,0
2017-11-03T00:56:59.710Z,0
2017-11-03T00:57:31.937Z,0
2017-11-03T00:58:03.263Z,0
2017-11-03T00:58:33.659Z,0
2017-11-03T00:59:04.779Z,0
2017-11-03T00:59:35.082Z,0
2017-11-03T01:00:06.124Z,0
2017-11-03T01:00:37.256Z,0
2017-11-03T01:01:08.487Z,0
2017-11-03T01:01:39.196Z,0
2017-11-03T01:02:10.311Z,0
2017-11-03T01:02:40.862Z,0
2017-11-03T01:03:12.127Z,0
2017-11-03T01:03:43.345Z,0
2017-11-03T01:04:14.495Z,0
2017-11-03T01:04:45.285Z,0
2017-11-03T01:05:17.359Z,0
2017-11-03T01:05:49.070Z,0
2017-11-03T01:06:20.515Z,0
2017-11-03T01:06:51.804Z,0
2017-11-03T01:07:23.996Z,0
2017-11-03T01:07:55.424Z,0
2017-11-03T01:08:26.899Z,0
2017-11-03T01:08:58.804Z,0
2017-11-03T01:09:30.723Z,0
2017-11-03T01:10:02.531Z,0
2017-11-03T01:10:35.881Z,0
2017-11-03T01:11:08.544Z,0
2017-11-03T01:11:40.322Z,0
2017-11-03T01:12:11.768Z,0
2017-11-03T01:12:43.618Z,0
2017-11-03T01:13:14.728Z,0
2017-11-03T01:13:50.789Z,0
2017-11-03T01:14:21.951Z,0
2017-11-03T01:14:52.724Z,0
2017-11-03T01:15:23.884Z,0
2017-11-03T01:15:57.189Z,0
2017-11-03T01:16:28.156Z,0
2017-11-03T01:17:00.845Z,0
2017-11-03T01:17:32.933Z,0
2017-11-03T01:18:04.142Z,0
2017-11-03T01:18:37.213Z,0
2017-11-03T01:19:08.734Z,0
2017-11-03T01:19:41.568Z,0
2017-11-03T01:20:12.480Z,0
2017-11-03T01:20:43.851Z,0
2017-11-03T01:21:16.271Z,0
2017-11-03T01:21:48.326Z,0
2017-11-03T01:22:20.152Z,0
2017-11-03T01:22:51.328Z,0
2017-11-03T01:23:22.196Z,0
2017-11-03T01:23:52.726Z,0
2017-11-03T01:24:26.139Z,0
2017-11-03T01:24:58.447Z,0
2017-11-03T01:25:29.182Z,0
2017-11-03T01:26:28.553Z,0
2017-11-03T01:27:00.061Z,0
2017-11-03T01:27:31.064Z,0
2017-11-03T01:28:01.595Z,0
2017-11-03T01:28:32.798Z,0
2017-11-03T01:29:04.211Z,0
2017-11-03T01:29:36.029Z,0
2017-11-03T01:30:06.980Z,0
2017-11-03T01:30:37.913Z,0
2017-11-03T01:31:09.784Z,0
2017-11-03T01:31:40.892Z,0
2017-11-03T01:32:13.044Z,0
2017-11-03T01:32:44.141Z,0
2017-11-03T01:33:16.419Z,0
2017-11-03T01:33:46.930Z,0
2017-11-03T01:34:18.462Z,0
2017-11-03T01:34:48.812Z,0
2017-11-03T01:35:18.416Z,0
2017-11-03T01:35:45.359Z,0
2017-11-03T01:36:11.673Z,0
2017-11-03T01:36:38.144Z,0
2017-11-03T01:37:04.517Z,0
2017-11-03T01:37:32.246Z,0
2017-11-03T01:38:04.297Z,0
2017-11-03T01:38:35.765Z,0
2017-11-03T01:39:05.277Z,0
2017-11-03T01:39:35.052Z,0
2017-11-03T01:40:05.983Z,0
2017-11-03T01:40:36.563Z,0
2017-11-03T01:41:08.617Z,0
2017-11-03T01:41:41.123Z,0
2017-11-03T01:42:12.032Z,0
2017-11-03T01:42:43.796Z,0
2017-11-03T01:43:15.885Z,0
2017-11-03T01:43:47.443Z,0
2017-11-03T01:44:18.982Z,0
2017-11-03T01:44:50.827Z,0
2017-11-03T01:45:23.144Z,0
2017-11-03T01:46:54.987Z,0
2017-11-03T01:47:25.838Z,0
2017-11-03T01:47:57.819Z,0
2017-11-03T01:48:29.103Z,0
2017-11-03T01:49:00.398Z,0
2017-11-03T01:49:31.095Z,0
2017-11-03T01:50:04.529Z,0
2017-11-03T01:50:36.211Z,0
2017-11-03T01:51:35.015Z,0
2017-11-03T01:52:06.483Z,0
2017-11-03T01:52:38.159Z,0
2017-11-03T01:53:09.114Z,0
2017-11-03T01:53:41.341Z,0
2017-11-03T01:54:12.051Z,0
2017-11-03T01:54:43.327Z,0
2017-11-03T01:55:14.636Z,0
2017-11-03T01:55:46.385Z,0
2017-11-03T01:56:18.397Z,0
2017-11-03T01:56:49.973Z,0
2017-11-03T01:57:21.679Z,0
2017-11-03T01:57:52.611Z,0
2017-11-03T01:58:23.420Z,0
2017-11-03T01:58:54.831Z,0
2017-11-03T01:59:25.915Z,0
2017-11-03T01:59:56.771Z,0
2017-11-03T02:00:28.225Z,0
2017-11-03T02:00:59.570Z,0
2017-11-03T02:01:30.257Z,0
2017-11-03T02:02:01.975Z,0
2017-11-03T02:02:32.912Z,0
2017-11-03T02:03:03.772Z,0
2017-11-03T02:03:35.753Z,0
2017-11-03T02:04:06.897Z,0
2017-11-03T02:04:38.441Z,0
2017-11-03T02:05:11.256Z,0
2017-11-03T02:05:43.284Z,0
2017-11-03T02:06:14.304Z,0
2017-11-03T02:06:44.858Z,0
2017-11-03T02:07:15.531Z,0
2017-11-03T02:07:46.043Z,0
2017-11-03T02:08:17.190Z,0
2017-11-03T02:08:48.674Z,0
2017-11-03T02:09:19.908Z,0
2017-11-03T02:09:50.874Z,0
2017-11-03T02:10:21.792Z,0
2017-11-03T02:11:53.985Z,0
2017-11-03T02:12:24.961Z,0
2017-11-03T02:12:57.772Z,0
2017-11-03T02:13:28.545Z,0
2017-11-03T02:14:00.073Z,0
2017-11-03T02:14:31.098Z,0
2017-11-03T02:15:03.611Z,0
2017-11-03T02:15:34.385Z,0
2017-11-03T02:16:06.811Z,0
2017-11-03T02:16:38.249Z,0
2017-11-03T02:17:08.554Z,0
2017-11-03T02:17:39.750Z,0
2017-11-03T02:18:10.241Z,0
2017-11-03T02:18:40.316Z,0
2017-11-03T02:19:11.734Z,0
2017-11-03T02:19:42.905Z,0
2017-11-03T02:20:14.524Z,0
2017-11-03T02:20:46.007Z,0
2017-11-03T02:21:18.175Z,0
2017-11-03T02:21:50.121Z,0
2017-11-03T02:22:21.748Z,0
2017-11-03T02:22:53.056Z,0
2017-11-03T02:23:24.067Z,0
2017-11-03T02:23:55.130Z,0
2017-11-03T02:24:26.400Z,0
2017-11-03T02:24:58.406Z,0
2017-11-03T02:25:28.825Z,0
2017-11-03T02:26:00.454Z,0
2017-11-03T02:26:31.178Z,0
2017-11-03T02:27:01.561Z,0
2017-11-03T02:27:31.890Z,0
2017-11-03T02:28:03.056Z,0
2017-11-03T02:28:35.275Z,0
2017-11-03T02:29:05.865Z,0
2017-11-03T02:29:36.976Z,0
2017-11-03T02:30:08.266Z,0
2017-11-03T02:30:38.874Z,0
2017-11-03T02:31:10.054Z,0
2017-11-03T02:31:40.699Z,0
2017-11-03T02:32:11.269Z,0
2017-11-03T02:32:41.847Z,0
2017-11-03T02:33:11.976Z,0
2017-11-03T02:33:43.715Z,0
2017-11-03T02:34:16.001Z,0
2017-11-03T02:34:47.542Z,0
2017-11-03T02:35:19.695Z,0
2017-11-03T02:35:50.236Z,0
2017-11-03T02:36:49.311Z,0
2017-11-03T02:37:19.797Z,0
2017-11-03T02:37:51.395Z,0
2017-11-03T02:38:22.865Z,0
2017-11-03T02:38:53.186Z,0
2017-11-03T02:39:23.607Z,0
2017-11-03T02:39:53.944Z,0
2017-11-03T02:40:24.544Z,0
2017-11-03T02:40:54.964Z,0
2017-11-03T02:41:26.687Z,0
2017-11-03T02:41:58.459Z,0
2017-11-03T02:42:29.158Z,0
2017-11-03T02:43:00.015Z,0
2017-11-03T02:43:30.556Z,0
2017-11-03T02:44:02.450Z,0
2017-11-03T02:44:32.853Z,0
2017-11-03T02:45:03.572Z,0
2017-11-03T02:45:33.783Z,0
2017-11-03T02:46:04.708Z,0
2017-11-03T02:46:31.740Z,0
2017-11-03T02:46:57.892Z,0
2017-11-03T02:47:24.044Z,0
2017-11-03T02:47:50.204Z,0
2017-11-03T02:48:16.357Z,0
2017-11-03T02:48:42.510Z,0
2017-11-03T02:49:08.685Z,0
2017-11-03T02:49:34.842Z,0
2017-11-03T02:50:00.989Z,0
2017-11-03T02:50:27.137Z,0
2017-11-03T02:50:53.292Z,0
2017-11-03T02:51:19.443Z,0
2017-11-03T02:51:45.594Z,0
2017-11-03T02:52:11.751Z,0
2017-11-03T02:52:37.906Z,0
2017-11-03T02:53:04.056Z,0
2017-11-03T02:53:30.204Z,0
2017-11-03T02:53:56.377Z,0
2017-11-03T02:54:22.529Z,0
2017-11-03T02:54:48.686Z,0
2017-11-03T02:55:14.841Z,0
2017-11-03T02:55:40.991Z,0
2017-11-03T02:56:07.146Z,0
2017-11-03T02:56:33.298Z,0
2017-11-03T02:56:59.454Z,0
2017-11-03T02:57:25.616Z,0
2017-11-03T02:57:51.775Z,0
2017-11-03T02:58:17.928Z,0
2017-11-03T02:58:44.085Z,0
2017-11-03T02:59:10.237Z,0
2017-11-03T02:59:36.389Z,0
2017-11-03T03:00:02.539Z,0
2017-11-03T03:00:28.696Z,0
2017-11-03T03:00:54.847Z,0
2017-11-03T03:01:20.997Z,0
2017-11-03T03:01:47.152Z,0
2017-11-03T03:02:13.304Z,0
2017-11-03T03:02:39.479Z,0
2017-11-03T03:03:05.631Z,0
2017-11-03T03:03:31.778Z,0
2017-11-03T03:03:57.938Z,0
2017-11-03T03:04:24.092Z,0
2017-11-03T03:04:50.244Z,0
2017-11-03T03:05:16.395Z,0
2017-11-03T03:05:42.544Z,0
2017-11-03T03:06:08.706Z,0
2017-11-03T03:06:34.848Z,0
2017-11-03T03:07:00.998Z,0
2017-11-03T03:07:27.153Z,0
2017-11-03T03:07:53.328Z,0
2017-11-03T03:08:19.485Z,0
2017-11-03T03:08:45.628Z,0
2017-11-03T03:09:11.782Z,0
2017-11-03T03:09:37.933Z,0
2017-11-03T03:10:04.090Z,0
2017-11-03T03:10:30.253Z,0
2017-11-03T03:10:56.401Z,0
2017-11-03T03:11:22.556Z,0
2017-11-03T03:11:48.732Z,0
2017-11-03T03:12:14.890Z,0
2017-11-03T03:12:41.033Z,0
2017-11-03T03:13:07.191Z,0
2017-11-03T03:13:33.345Z,0
2017-11-03T03:13:59.492Z,0
2017-11-03T03:14:25.648Z,0
2017-11-03T03:14:51.797Z,0
2017-11-03T03:15:18.745Z,0
2017-11-03T03:15:44.890Z,0
2017-11-03T03:16:11.041Z,0
2017-11-03T03:16:37.202Z,0
2017-11-03T03:17:03.347Z,0
2017-11-03T03:17:29.507Z,0
2017-11-03T03:17:55.655Z,0
2017-11-03T03:18:21.810Z,0
2017-11-03T03:18:47.959Z,0
2017-11-03T03:19:14.120Z,0
2017-11-03T03:19:40.296Z,0
2017-11-03T03:20:06.450Z,0
2017-11-03T03:20:32.599Z,0
2017-11-03T03:20:58.747Z,0
2017-11-03T03:21:24.907Z,0
2017-11-03T03:21:51.065Z,0
2017-11-03T03:22:17.212Z,0
2017-11-03T03:22:43.360Z,0
2017-11-03T03:23:09.518Z,0
2017-11-03T03:23:35.693Z,0
2017-11-03T03:24:01.852Z,0
2017-11-03T03:24:28.012Z,0
2017-11-03T03:24:54.154Z,0
2017-11-03T03:25:20.310Z,0
2017-11-03T03:25:46.459Z,0
2017-11-03T03:26:12.608Z,0
2017-11-03T03:26:38.791Z,0
2017-11-03T03:27:04.944Z,0
2017-11-03T03:27:31.104Z,0
2017-11-03T03:27:57.273Z,0
2017-11-03T03:28:23.429Z,0
2017-11-03T03:28:49.578Z,0
2017-11-03T03:29:15.733Z,0
2017-11-03T03:29:41.888Z,0
2017-11-03T03:30:08.035Z,0
2017-11-03T03:30:34.197Z,0
2017-11-03T03:31:00.351Z,0
2017-11-03T03:31:26.509Z,0
2017-11-03T03:31:52.655Z,0
2017-11-03T03:32:18.810Z,0
2017-11-03T03:32:44.965Z,0
2017-11-03T03:33:11.121Z,0
2017-11-03T03:33:37.275Z,0
2017-11-03T03:34:03.449Z,0
2017-11-03T03:34:29.604Z,0
2017-11-03T03:34:55.749Z,0
2017-11-03T03:35:21.906Z,0
2017-11-03T03:35:48.055Z,0
2017-11-03T03:36:14.205Z,0
2017-11-03T03:36:40.366Z,0
2017-11-03T03:37:06.517Z,0
2017-11-03T03:37:32.686Z,0
2017-11-03T03:37:58.837Z,0
2017-11-03T03:38:24.993Z,0
2017-11-03T03:38:51.142Z,0
2017-11-03T03:39:17.293Z,0
2017-11-03T03:39:43.440Z,0
2017-11-03T03:40:09.589Z,0
2017-11-03T03:40:35.749Z,0
2017-11-03T03:41:01.906Z,0
2017-11-03T03:41:28.062Z,0
2017-11-03T03:41:54.222Z,0
2017-11-03T03:42:20.370Z,0
2017-11-03T03:42:46.527Z,0
2017-11-03T03:43:12.681Z,0
2017-11-03T03:43:38.838Z,0
2017-11-03T03:44:04.998Z,0
2017-11-03T03:44:31.148Z,0
2017-11-03T03:44:57.305Z,0
2017-11-03T03:45:23.449Z,0
2017-11-03T03:45:49.599Z,0
2017-11-03T03:46:15.747Z,0
2017-11-03T03:46:41.900Z,0
2017-11-03T03:47:08.056Z,0
2017-11-03T03:47:34.234Z,0
2017-11-03T03:48:00.384Z,0
2017-11-03T03:48:26.550Z,0
2017-11-03T03:48:52.694Z,0
2017-11-03T03:49:18.880Z,0
2017-11-03T03:49:45.050Z,0
2017-11-03T03:50:11.207Z,0
2017-11-03T03:50:37.356Z,0
2017-11-03T03:51:03.540Z,0
2017-11-03T03:51:29.719Z,0
2017-11-03T03:51:55.876Z,0
2017-11-03T03:52:22.025Z,0
2017-11-03T03:52:48.185Z,0
2017-11-03T03:53:14.362Z,0
2017-11-03T03:53:40.545Z,0
2017-11-03T03:54:06.701Z,0
2017-11-03T03:54:32.852Z,0
2017-11-03T03:54:59.007Z,0
2017-11-03T03:55:25.157Z,0
2017-11-03T03:55:51.315Z,0
2017-11-03T03:56:17.462Z,0
2017-11-03T03:56:43.627Z,0
2017-11-03T03:57:09.768Z,0
2017-11-03T03:57:35.924Z,0
2017-11-03T03:58:02.073Z,0
2017-11-03T03:58:28.224Z,0
2017-11-03T03:58:54.382Z,0
2017-11-03T03:59:20.535Z,0
2017-11-03T03:59:46.690Z,0
2017-11-03T04:00:12.843Z,0
2017-11-03T04:00:38.989Z,0
2017-11-03T04:01:05.146Z,0
2017-11-03T04:01:31.349Z,0
2017-11-03T04:01:57.504Z,0
2017-11-03T04:02:23.656Z,0
2017-11-03T04:02:49.803Z,0
2017-11-03T04:03:15.961Z,0
2017-11-03T04:03:42.112Z,0
2017-11-03T04:04:08.258Z,0
2017-11-03T04:04:34.414Z,0
2017-11-03T04:05:00.591Z,0
2017-11-03T04:05:26.781Z,0
2017-11-03T04:05:52.934Z,0
2017-11-03T04:06:19.095Z,0
2017-11-03T04:06:45.240Z,0
2017-11-03T04:07:11.386Z,0
2017-11-03T04:07:37.547Z,0
2017-11-03T04:08:03.696Z,0
2017-11-03T04:08:29.852Z,0
2017-11-03T04:08:56.004Z,0
2017-11-03T04:09:22.148Z,0
2017-11-03T04:09:48.299Z,0
2017-11-03T04:10:14.459Z,0
2017-11-03T04:10:40.610Z,0
2017-11-03T04:11:06.753Z,0
2017-11-03T04:11:32.908Z,0
2017-11-03T04:11:59.064Z,0
2017-11-03T04:12:25.220Z,0
2017-11-03T04:12:51.374Z,0
2017-11-03T04:13:17.532Z,0
2017-11-03T04:13:43.706Z,0
2017-11-03T04:14:09.863Z,0
2017-11-03T04:14:36.008Z,0
2017-11-03T04:15:02.164Z,0
2017-11-03T04:15:28.321Z,0
2017-11-03T04:15:54.469Z,0
2017-11-03T04:16:20.619Z,0
2017-11-03T04:16:46.771Z,0
2017-11-03T04:17:12.924Z,0
2017-11-03T04:17:39.077Z,0
2017-11-03T04:18:05.232Z,0
2017-11-03T04:18:31.390Z,0
2017-11-03T04:18:57.562Z,0
2017-11-03T04:19:23.745Z,0
2017-11-03T04:19:49.894Z,0
2017-11-03T04:20:16.051Z,0
2017-11-03T04:20:42.199Z,0
2017-11-03T04:21:08.354Z,0
2017-11-03T04:21:34.502Z,0
2017-11-03T04:22:00.660Z,0
2017-11-03T04:22:26.807Z,0
2017-11-03T04:22:52.955Z,0
2017-11-03T04:23:19.110Z,0
2017-11-03T04:23:45.263Z,0
2017-11-03T04:24:11.414Z,0
2017-11-03T04:24:37.564Z,0
2017-11-03T04:25:03.722Z,0
2017-11-03T04:25:29.870Z,0
2017-11-03T04:25:56.025Z,0
2017-11-03T04:26:22.175Z,0
2017-11-03T04:26:48.325Z,0
2017-11-03T04:27:14.483Z,0
2017-11-03T04:27:40.640Z,0
2017-11-03T04:28:06.789Z,0
2017-11-03T04:28:32.939Z,0
2017-11-03T04:28:59.094Z,0
2017-11-03T04:29:25.254Z,0
2017-11-03T04:29:51.399Z,0
2017-11-03T04:30:17.550Z,0
2017-11-03T04:30:43.700Z,0
2017-11-03T04:31:09.874Z,0
2017-11-03T04:31:35.997Z,0
2017-11-03T04:32:02.157Z,0
2017-11-03T04:32:28.307Z,0
2017-11-03T04:32:54.464Z,0
2017-11-03T04:33:20.618Z,0
2017-11-03T04:33:46.774Z,0
2017-11-03T04:34:12.921Z,0
2017-11-03T04:34:39.080Z,0
2017-11-03T04:35:05.228Z,0
2017-11-03T04:35:31.378Z,0
2017-11-03T04:35:57.534Z,0
2017-11-03T04:36:23.695Z,0
2017-11-03T04:36:49.844Z,0
2017-11-03T04:37:16.023Z,0
2017-11-03T04:37:42.170Z,0
2017-11-03T04:38:08.325Z,0
2017-11-03T04:38:34.482Z,0
2017-11-03T04:39:00.631Z,0
2017-11-03T04:39:26.790Z,0
2017-11-03T04:39:52.935Z,0
2017-11-03T04:40:19.128Z,0
2017-11-03T04:40:45.275Z,0
2017-11-03T04:41:11.425Z,0
2017-11-03T04:41:37.581Z,0
2017-11-03T04:42:03.732Z,0
2017-11-03T04:42:29.877Z,0
2017-11-03T04:42:56.037Z,0
2017-11-03T04:43:22.183Z,0
2017-11-03T04:43:48.331Z,0
2017-11-03T04:44:14.485Z,0
2017-11-03T04:44:40.632Z,0
2017-11-03T04:45:06.791Z,0
2017-11-03T04:45:32.944Z,0
2017-11-03T04:45:59.095Z,0
2017-11-03T04:46:25.252Z,0
2017-11-03T04:46:51.402Z,0
2017-11-03T04:47:17.547Z,0
2017-11-03T04:47:43.707Z,0
2017-11-03T04:48:09.853Z,0
2017-11-03T04:48:36.011Z,0
2017-11-03T04:49:02.156Z,0
2017-11-03T04:49:28.305Z,0
2017-11-03T04:49:54.461Z,0
2017-11-03T04:50:20.611Z,0
2017-11-03T04:50:46.765Z,0
2017-11-03T04:51:12.923Z,0
2017-11-03T04:51:39.079Z,0
2017-11-03T04:52:05.223Z,0
2017-11-03T04:52:31.383Z,0
2017-11-03T04:52:57.529Z,0
2017-11-03T04:53:23.668Z,0
2017-11-03T04:53:49.830Z,0
2017-11-03T04:54:15.978Z,0
2017-11-03T04:54:42.139Z,0
2017-11-03T04:55:08.289Z,0
2017-11-03T04:55:34.441Z,0
2017-11-03T04:56:00.589Z,0
2017-11-03T04:56:26.737Z,0
2017-11-03T04:56:52.895Z,0
2017-11-03T04:57:19.080Z,0
2017-11-03T04:57:45.235Z,0
2017-11-03T04:58:11.387Z,0
2017-11-03T04:58:37.545Z,0
2017-11-03T04:59:03.693Z,0
2017-11-03T04:59:29.847Z,0
2017-11-03T04:59:55.993Z,0
2017-11-03T05:00:22.152Z,0
2017-11-03T05:00:48.304Z,0
2017-11-03T05:01:14.457Z,0
2017-11-03T05:01:40.614Z,0
2017-11-03T05:02:06.770Z,0
2017-11-03T05:02:32.918Z,0
2017-11-03T05:02:59.066Z,0
2017-11-03T05:03:25.230Z,0
2017-11-03T05:03:51.372Z,0
2017-11-03T05:04:17.530Z,0
2017-11-03T05:04:43.681Z,0
2017-11-03T05:05:09.829Z,0
2017-11-03T05:05:35.986Z,0
2017-11-03T05:06:02.134Z,0
2017-11-03T05:06:28.282Z,0
2017-11-03T05:06:54.441Z,0
2017-11-03T05:07:20.593Z,0
2017-11-03T05:07:46.771Z,0
2017-11-03T05:08:12.918Z,0
2017-11-03T05:08:39.077Z,0
2017-11-03T05:09:05.222Z,0
2017-11-03T05:09:31.383Z,0
2017-11-03T05:09:57.528Z,0
2017-11-03T05:10:23.684Z,0
2017-11-03T05:10:49.834Z,0
2017-11-03T05:11:15.986Z,0
2017-11-03T05:11:42.138Z,0
2017-11-03T05:12:08.295Z,0
2017-11-03T05:12:34.450Z,0
2017-11-03T05:13:00.606Z,0
2017-11-03T05:13:26.760Z,0
2017-11-03T05:13:52.908Z,0
2017-11-03T05:14:19.067Z,0
2017-11-03T05:14:45.229Z,0
2017-11-03T05:15:11.376Z,0
2017-11-03T05:15:37.524Z,0
2017-11-03T05:16:03.673Z,0
2017-11-03T05:16:29.821Z,0
2017-11-03T05:16:55.980Z,0
2017-11-03T05:17:22.126Z,0
2017-11-03T05:17:48.271Z,0
2017-11-03T05:18:14.427Z,0
2017-11-03T05:18:40.579Z,0
2017-11-03T05:19:06.730Z,0
2017-11-03T05:19:32.886Z,0
2017-11-03T05:19:59.037Z,0
2017-11-03T05:20:25.197Z,0
2017-11-03T05:20:51.343Z,0
2017-11-03T05:21:17.491Z,0
2017-11-03T05:21:43.637Z,0
2017-11-03T05:22:09.790Z,0
2017-11-03T05:22:35.943Z,0
2017-11-03T05:23:02.096Z,0
2017-11-03T05:23:28.250Z,0
2017-11-03T05:23:54.395Z,0
2017-11-03T05:24:20.554Z,0
2017-11-03T05:24:46.711Z,0
2017-11-03T05:25:12.858Z,0
2017-11-03T05:25:39.002Z,0
2017-11-03T05:26:05.165Z,0
2017-11-03T05:26:31.317Z,0
2017-11-03T05:26:57.468Z,0
2017-11-03T05:27:23.628Z,0
2017-11-03T05:27:49.776Z,0
2017-11-03T05:28:15.925Z,0
2017-11-03T05:28:42.081Z,0
2017-11-03T05:29:08.230Z,0
2017-11-03T05:29:34.388Z,0
2017-11-03T05:30:00.541Z,0
2017-11-03T05:30:26.692Z,0
2017-11-03T05:30:52.842Z,0
2017-11-03T05:31:18.995Z,0
2017-11-03T05:31:45.149Z,0
2017-11-03T05:32:11.298Z,0
2017-11-03T05:32:37.457Z,0
2017-11-03T05:33:03.607Z,0
2017-11-03T05:33:29.753Z,0
2017-11-03T05:33:55.914Z,0
2017-11-03T05:34:22.070Z,0
2017-11-03T05:34:48.219Z,0
2017-11-03T05:35:14.369Z,0
2017-11-03T05:35:40.518Z,0
2017-11-03T05:36:06.666Z,0
2017-11-03T05:36:32.816Z,0
2017-11-03T05:36:58.970Z,0
2017-11-03T05:37:25.126Z,0
2017-11-03T05:37:51.280Z,0
2017-11-03T05:38:17.427Z,0
2017-11-03T05:38:43.586Z,0
2017-11-03T05:39:09.735Z,0
2017-11-03T05:39:35.889Z,0
2017-11-03T05:40:02.039Z,0
2017-11-03T05:40:28.220Z,0
2017-11-03T05:40:54.374Z,0
2017-11-03T05:41:20.556Z,0
2017-11-03T05:41:46.706Z,0
2017-11-03T05:42:12.853Z,0
2017-11-03T05:42:39.014Z,0
2017-11-03T05:43:05.163Z,0
2017-11-03T05:43:31.324Z,0
2017-11-03T05:43:57.470Z,0
2017-11-03T05:44:23.626Z,0
2017-11-03T05:44:49.773Z,0
2017-11-03T05:45:15.931Z,0
2017-11-03T05:45:42.088Z,0
2017-11-03T05:46:08.639Z,0
2017-11-03T05:46:36.940Z,0
2017-11-03T05:47:05.078Z,0
2017-11-03T05:47:32.113Z,0
2017-11-03T05:47:59.526Z,0
2017-11-03T05:48:27.138Z,0
2017-11-03T05:48:54.665Z,0
2017-11-03T05:49:21.189Z,0
2017-11-03T05:49:47.343Z,0
2017-11-03T05:50:13.499Z,0
2017-11-03T05:50:39.681Z,0
2017-11-03T05:51:05.834Z,0
2017-11-03T05:51:31.984Z,0
2017-11-03T05:51:58.141Z,0
2017-11-03T05:52:24.289Z,0
2017-11-03T05:52:50.442Z,4
2017-11-03T05:53:17.037Z,4
2017-11-03T05:53:44.663Z,4
2017-11-03T05:54:12.058Z,4
2017-11-03T05:54:38.422Z,0
2017-11-03T05:55:04.992Z,0
2017-11-03T05:55:31.561Z,0
2017-11-03T05:55:57.974Z,4
2017-11-03T05:56:24.352Z,4
2017-11-03T05:56:50.834Z,4
2017-11-03T05:57:18.523Z,4
2017-11-03T05:57:46.353Z,0
2017-11-03T05:58:14.582Z,4
2017-11-03T05:58:42.444Z,4
2017-11-03T05:59:10.072Z,4
2017-11-03T05:59:36.895Z,4
2017-11-03T06:00:04.287Z,4
2017-11-03T06:00:31.634Z,4
2017-11-03T06:00:58.710Z,4
2017-11-03T06:01:25.800Z,4
2017-11-03T06:01:51.891Z,4
2017-11-03T06:02:18.036Z,4
2017-11-03T06:02:44.187Z,4
2017-11-03T06:03:10.340Z,8
2017-11-03T06:03:36.491Z,4
2017-11-03T06:04:02.647Z,8
2017-11-03T06:04:28.812Z,8
2017-11-03T06:04:54.962Z,12
2017-11-03T06:05:21.111Z,12
2017-11-03T06:05:47.260Z,8
2017-11-03T06:06:13.413Z,16
2017-11-03T06:06:39.563Z,16
2017-11-03T06:07:05.716Z,16
2017-11-03T06:07:31.872Z,16
2017-11-03T06:07:58.023Z,20
2017-11-03T06:08:24.183Z,24
2017-11-03T06:08:50.330Z,24
2017-11-03T06:09:16.489Z,24
2017-11-03T06:09:42.638Z,28
2017-11-03T06:10:08.799Z,28
2017-11-03T06:10:34.971Z,32
2017-11-03T06:11:01.121Z,32
2017-11-03T06:11:27.307Z,32
2017-11-03T06:11:53.460Z,32
2017-11-03T06:12:19.607Z,32
2017-11-03T06:12:45.767Z,36
2017-11-03T06:13:11.921Z,40
2017-11-03T06:13:38.092Z,40
2017-11-03T06:14:04.249Z,44
2017-11-03T06:14:30.397Z,44
2017-11-03T06:14:56.550Z,48
2017-11-03T06:15:22.706Z,48
2017-11-03T06:15:48.855Z,52
2017-11-03T06:16:15.011Z,56
2017-11-03T06:16:41.165Z,56
2017-11-03T06:17:07.312Z,64
2017-11-03T06:17:33.472Z,68
2017-11-03T06:17:59.620Z,68
2017-11-03T06:18:25.774Z,72
2017-11-03T06:18:51.939Z,72
2017-11-03T06:19:18.087Z,76
2017-11-03T06:19:44.228Z,76
2017-11-03T06:20:10.384Z,84
2017-11-03T06:20:36.528Z,88
2017-11-03T06:21:02.679Z,96
2017-11-03T06:21:28.831Z,104
2017-11-03T06:21:54.986Z,108
2017-11-03T06:22:21.140Z,116
2017-11-03T06:22:47.292Z,116
2017-11-03T06:23:13.449Z,120
2017-11-03T06:23:39.606Z,124
2017-11-03T06:24:05.763Z,128
2017-11-03T06:24:31.917Z,136
2017-11-03T06:24:58.063Z,148
2017-11-03T06:25:24.217Z,152
2017-11-03T06:25:50.393Z,152
2017-11-03T06:26:16.642Z,156
2017-11-03T06:26:42.841Z,160
2017-11-03T06:27:08.996Z,168
2017-11-03T06:27:35.149Z,180
2017-11-03T06:28:01.309Z,196
2017-11-03T06:28:27.457Z,216
2017-11-03T06:28:53.601Z,236
2017-11-03T06:29:19.765Z,244
2017-11-03T06:29:45.904Z,256
2017-11-03T06:30:12.064Z,264
2017-11-03T06:30:38.218Z,260
2017-11-03T06:31:04.368Z,260
2017-11-03T06:31:30.523Z,264
2017-11-03T06:31:56.676Z,272
2017-11-03T06:32:22.830Z,280
2017-11-03T06:32:48.984Z,292
2017-11-03T06:33:15.141Z,304
2017-11-03T06:33:41.295Z,316
2017-11-03T06:34:07.450Z,312
2017-11-03T06:34:33.605Z,292
2017-11-03T06:34:59.755Z,300
2017-11-03T06:35:25.905Z,324
2017-11-03T06:35:52.065Z,360
2017-11-03T06:36:18.209Z,396
2017-11-03T06:36:44.371Z,412
2017-11-03T06:37:10.518Z,412
2017-11-03T06:37:36.678Z,412
2017-11-03T06:38:02.826Z,420
2017-11-03T06:38:28.989Z,440
2017-11-03T06:38:55.132Z,468
2017-11-03T06:39:21.282Z,500
2017-11-03T06:39:47.435Z,520
2017-11-03T06:40:13.586Z,536
2017-11-03T06:40:39.737Z,524
2017-11-03T06:41:05.882Z,496
2017-11-03T06:41:32.042Z,468
2017-11-03T06:41:58.193Z,448
2017-11-03T06:42:24.350Z,460
2017-11-03T06:42:50.505Z,500
2017-11-03T06:43:16.657Z,532
2017-11-03T06:43:42.807Z,556
2017-11-03T06:44:08.964Z,588
2017-11-03T06:44:35.114Z,608
2017-11-03T06:45:01.262Z,628
2017-11-03T06:45:27.418Z,664
2017-11-03T06:45:53.570Z,692
2017-11-03T06:46:19.733Z,720
2017-11-03T06:46:45.887Z,744
2017-11-03T06:47:12.032Z,768
2017-11-03T06:47:38.189Z,784
2017-11-03T06:48:04.344Z,780
2017-11-03T06:48:30.493Z,732
2017-11-03T06:48:56.650Z,644
2017-11-03T06:49:22.804Z,608
2017-11-03T06:49:48.993Z,660
2017-11-03T06:50:15.134Z,712
2017-11-03T06:50:41.295Z,736
2017-11-03T06:51:07.439Z,748
2017-11-03T06:51:33.595Z,768
2017-11-03T06:51:59.736Z,804
2017-11-03T06:52:25.891Z,840
2017-11-03T06:52:52.051Z,852
2017-11-03T06:53:18.201Z,856
2017-11-03T06:53:44.354Z,884
2017-11-03T06:54:10.511Z,924
2017-11-03T06:54:36.663Z,980